Ben-my-chree — MXLG6 — position and weather

sailwx.info

Track history (hours):
 
Tides and Currents Weather Stations Pressure Air Temp Water Temp Dewpoint Dewpoint Depression Visibility Wind Speed Wind Dir Waves Ship Positions

Ben-my-chree

Operator: The Isle of Man Steam Packet Co Ltd

Last reported at 2019-Feb-15 20:41 UTC. Time now 2019-Feb-16 03:03 UTC.
Position N 54°03' W 004°04'.

Length 120 m; draft 5 m.

Type: Passenger vessel. MMSI: 234983000.

Date/timePositionNaut miles runAvg speedWind from/ knotsBaromVisibWave heightAir tempDewpointWater temp
2019-Feb-15 20:41N 54°03' W 004°04'317.3
2019-Feb-15 20:29N 54°05' W 004°09'11 4.1
2019-Feb-15 17:46N 54°09' W 004°26'417.3
2019-Feb-15 17:30N 54°08' W 004°19'917.4
2019-Feb-15 17:00N 54°05' W 004°05'1617.3
2019-Feb-15 16:06N 53°59' W 003°40'217.7
2019-Feb-15 16:00N 53°58' W 003°38'917.1
2019-Feb-15 15:30N 53°56' W 003°24'0 0.1
2019-Feb-15 11:04N 53°56' W 003°25'116.8
2019-Feb-15 11:00N 53°56' W 003°26'1116.6
2019-Feb-15 10:21N 53°59' W 003°44'616.5
2019-Feb-15 10:00N 54°01' W 003°53'22 5.3
2019-Feb-15 05:53N 54°09' W 004°28'616.1
2019-Feb-15 05:30N 54°07' W 004°18'917.9
2019-Feb-15 05:00N 54°04' W 004°04'917.7
2019-Feb-15 04:30N 54°00' W 003°50'1417.6
2019-Feb-15 03:42N 53°56' W 003°27'417.4
2019-Feb-15 03:29N 53°56' W 003°21'22 3.4
2019-Feb-14 20:50N 54°01' W 003°57'19 5.6
2019-Feb-14 17:29N 54°09' W 004°26'817.8
2019-Feb-14 17:00N 54°06' W 004°13'917.6
2019-Feb-14 16:30N 54°02' W 003°59'1317.5
2019-Feb-14 15:46N 53°57' W 003°39'517.4
2019-Feb-14 15:29N 53°56' W 003°31'1217.1
2019-Feb-14 14:48N 53°56' W 003°11'31 6.0
2019-Feb-14 09:37N 54°02' W 004°03'416.6
2019-Feb-14 09:23N 54°04' W 004°09'12 3.0
2019-Feb-14 05:35N 54°09' W 004°26'217.2
2019-Feb-14 05:30N 54°09' W 004°24'917.6
2019-Feb-14 05:00N 54°06' W 004°10'2117.2
2019-Feb-14 03:48N 53°58' W 003°37'16 2.2
2019-Feb-13 20:31N 54°03' W 004°03'117.0
2019-Feb-13 20:28N 54°04' W 004°05'14 4.6
2019-Feb-13 17:31N 54°09' W 004°26'216.8
2019-Feb-13 17:25N 54°09' W 004°23'717.4
2019-Feb-13 17:01N 54°06' W 004°12'1017.1
2019-Feb-13 16:24N 54°02' W 003°56'916.9
2019-Feb-13 15:51N 53°59' W 003°41'27 2.6
2019-Feb-13 05:23N 54°09' W 004°23'1717.5
2019-Feb-13 04:24N 54°02' W 003°56'1217.3
2019-Feb-13 03:41N 53°57' W 003°36'25 2.4
2019-Feb-12 17:13N 54°07' W 004°16'1417.5
2019-Feb-12 16:24N 54°01' W 003°53'15 1.4
2019-Feb-12 05:05N 54°07' W 004°17'717.9
2019-Feb-12 04:41N 54°04' W 004°06'618.1
2019-Feb-12 04:20N 54°02' W 003°56'11 1.0
2019-Feb-11 17:29N 54°06' W 004°14'1118.5
2019-Feb-11 16:52N 54°02' W 003°55'1 0.1
2019-Feb-11 04:16N 54°01' W 003°53'14 1.3
2019-Feb-10 17:55N 54°04' W 004°17'4017.0
2019-Feb-10 15:35N 53°36' W 003°28'117.0
2019-Feb-10 15:30N 53°36' W 003°26'816.6
2019-Feb-10 15:00N 53°31' W 003°14'714.7
2019-Feb-10 14:30N 53°28' W 003°03'4 8.6
2019-Feb-10 14:00N 53°24' W 003°01'0 0.0
2019-Feb-10 13:30N 53°24' W 003°01'0 0.0
2019-Feb-10 13:00N 53°24' W 003°01'0 0.0
2019-Feb-10 12:30N 53°24' W 003°01'0 0.0
2019-Feb-10 12:00N 53°24' W 003°01'4 7.9
2019-Feb-10 11:30N 53°28' W 003°03'816.4
2019-Feb-10 11:00N 53°31' W 003°15'1019.1
2019-Feb-10 10:30N 53°37' W 003°29'28 5.0
2019-Feb-10 04:49N 54°01' W 003°54'21 2.1
2019-Feb-09 18:46N 54°09' W 004°26'416.7
2019-Feb-09 18:30N 54°07' W 004°20'1017.5
2019-Feb-09 17:57N 54°00' W 004°09'3217.9
2019-Feb-09 16:09N 53°37' W 003°30'317.9
2019-Feb-09 16:00N 53°36' W 003°27'917.7
2019-Feb-09 15:30N 53°31' W 003°14'815.6
2019-Feb-09 15:01N 53°27' W 003°03'4 7.1
2019-Feb-09 14:29N 53°24' W 003°01'0 0.0
2019-Feb-09 13:59N 53°24' W 003°01'0 0.0
2019-Feb-09 13:29N 53°24' W 003°01'0 0.0
2019-Feb-09 13:00N 53°24' W 003°01'0 0.4
2019-Feb-09 12:30N 53°24' W 003°00'612.2
2019-Feb-09 12:01N 53°29' W 003°05'714.9
2019-Feb-09 11:31N 53°32' W 003°17'917.2
2019-Feb-09 11:00N 53°37' W 003°29'31 1.0
2019-Feb-08 03:45N 54°02' W 003°59'3 0.3
2019-Feb-07 16:18N 54°01' W 003°54'21 0.9
2019-Feb-06 17:12N 54°09' W 004°27'818.1
2019-Feb-06 16:44N 54°06' W 004°14'1218.6
2019-Feb-06 16:04N 54°01' W 003°54'20 1.9
2019-Feb-06 05:10N 54°09' W 004°26'717.8
2019-Feb-06 04:46N 54°06' W 004°15'918.1
2019-Feb-06 04:18N 54°03' W 004°02'618.2
2019-Feb-06 03:58N 54°01' W 003°52'  
Track history (hours):
 
Tides and Currents Weather Stations Pressure Air Temp Water Temp Dewpoint Dewpoint Depression Visibility Wind Speed Wind Dir Waves Ship Positions

Ben-my-chree

Operator: The Isle of Man Steam Packet Co Ltd

Last reported at 2019-Feb-15 20:41 UTC. Time now 2019-Feb-16 03:03 UTC.
Position N 54°03' W 004°04'.

Length 120 m; draft 5 m.

Type: Passenger vessel. MMSI: 234983000.

Date/timePositionNaut miles runAvg speedWind from/ knotsBaromVisibWave heightAir tempDewpointWater temp
2019-Feb-15 20:41N 54°03' W 004°04'317.3
2019-Feb-15 20:29N 54°05' W 004°09'11 4.1
2019-Feb-15 17:46N 54°09' W 004°26'417.3
2019-Feb-15 17:30N 54°08' W 004°19'917.4
2019-Feb-15 17:00N 54°05' W 004°05'1617.3
2019-Feb-15 16:06N 53°59' W 003°40'217.7
2019-Feb-15 16:00N 53°58' W 003°38'917.1
2019-Feb-15 15:30N 53°56' W 003°24'0 0.1
2019-Feb-15 11:04N 53°56' W 003°25'116.8
2019-Feb-15 11:00N 53°56' W 003°26'1116.6
2019-Feb-15 10:21N 53°59' W 003°44'616.5
2019-Feb-15 10:00N 54°01' W 003°53'22 5.3
2019-Feb-15 05:53N 54°09' W 004°28'616.1
2019-Feb-15 05:30N 54°07' W 004°18'917.9
2019-Feb-15 05:00N 54°04' W 004°04'917.7
2019-Feb-15 04:30N 54°00' W 003°50'1417.6
2019-Feb-15 03:42N 53°56' W 003°27'417.4
2019-Feb-15 03:29N 53°56' W 003°21'22 3.4
2019-Feb-14 20:50N 54°01' W 003°57'19 5.6
2019-Feb-14 17:29N 54°09' W 004°26'817.8
2019-Feb-14 17:00N 54°06' W 004°13'917.6
2019-Feb-14 16:30N 54°02' W 003°59'1317.5
2019-Feb-14 15:46N 53°57' W 003°39'517.4
2019-Feb-14 15:29N 53°56' W 003°31'1217.1
2019-Feb-14 14:48N 53°56' W 003°11'31 6.0
2019-Feb-14 09:37N 54°02' W 004°03'416.6
2019-Feb-14 09:23N 54°04' W 004°09'12 3.0
2019-Feb-14 05:35N 54°09' W 004°26'217.2
2019-Feb-14 05:30N 54°09' W 004°24'917.6
2019-Feb-14 05:00N 54°06' W 004°10'2117.2
2019-Feb-14 03:48N 53°58' W 003°37'16 2.2
2019-Feb-13 20:31N 54°03' W 004°03'117.0
2019-Feb-13 20:28N 54°04' W 004°05'14 4.6
2019-Feb-13 17:31N 54°09' W 004°26'216.8
2019-Feb-13 17:25N 54°09' W 004°23'717.4
2019-Feb-13 17:01N 54°06' W 004°12'1017.1
2019-Feb-13 16:24N 54°02' W 003°56'916.9
2019-Feb-13 15:51N 53°59' W 003°41'27 2.6
2019-Feb-13 05:23N 54°09' W 004°23'1717.5
2019-Feb-13 04:24N 54°02' W 003°56'1217.3
2019-Feb-13 03:41N 53°57' W 003°36'25 2.4
2019-Feb-12 17:13N 54°07' W 004°16'1417.5
2019-Feb-12 16:24N 54°01' W 003°53'15 1.4
2019-Feb-12 05:05N 54°07' W 004°17'717.9
2019-Feb-12 04:41N 54°04' W 004°06'618.1
2019-Feb-12 04:20N 54°02' W 003°56'11 1.0
2019-Feb-11 17:29N 54°06' W 004°14'1118.5
2019-Feb-11 16:52N 54°02' W 003°55'1 0.1
2019-Feb-11 04:16N 54°01' W 003°53'14 1.3
2019-Feb-10 17:55N 54°04' W 004°17'4017.0
2019-Feb-10 15:35N 53°36' W 003°28'117.0
2019-Feb-10 15:30N 53°36' W 003°26'816.6
2019-Feb-10 15:00N 53°31' W 003°14'714.7
2019-Feb-10 14:30N 53°28' W 003°03'4 8.6
2019-Feb-10 14:00N 53°24' W 003°01'0 0.0
2019-Feb-10 13:30N 53°24' W 003°01'0 0.0
2019-Feb-10 13:00N 53°24' W 003°01'0 0.0
2019-Feb-10 12:30N 53°24' W 003°01'0 0.0
2019-Feb-10 12:00N 53°24' W 003°01'4 7.9
2019-Feb-10 11:30N 53°28' W 003°03'816.4
2019-Feb-10 11:00N 53°31' W 003°15'1019.1
2019-Feb-10 10:30N 53°37' W 003°29'28 5.0
2019-Feb-10 04:49N 54°01' W 003°54'21 2.1
2019-Feb-09 18:46N 54°09' W 004°26'416.7
2019-Feb-09 18:30N 54°07' W 004°20'1017.5
2019-Feb-09 17:57N 54°00' W 004°09'3217.9
2019-Feb-09 16:09N 53°37' W 003°30'317.9
2019-Feb-09 16:00N 53°36' W 003°27'917.7
2019-Feb-09 15:30N 53°31' W 003°14'815.6
2019-Feb-09 15:01N 53°27' W 003°03'4 7.1
2019-Feb-09 14:29N 53°24' W 003°01'0 0.0
2019-Feb-09 13:59N 53°24' W 003°01'0 0.0
2019-Feb-09 13:29N 53°24' W 003°01'0 0.0
2019-Feb-09 13:00N 53°24' W 003°01'0 0.4
2019-Feb-09 12:30N 53°24' W 003°00'612.2
2019-Feb-09 12:01N 53°29' W 003°05'714.9
2019-Feb-09 11:31N 53°32' W 003°17'917.2
2019-Feb-09 11:00N 53°37' W 003°29'31 1.0
2019-Feb-08 03:45N 54°02' W 003°59'3 0.3
2019-Feb-07 16:18N 54°01' W 003°54'21 0.9
2019-Feb-06 17:12N 54°09' W 004°27'818.1
2019-Feb-06 16:44N 54°06' W 004°14'1218.6
2019-Feb-06 16:04N 54°01' W 003°54'20 1.9
2019-Feb-06 05:10N 54°09' W 004°26'717.8
2019-Feb-06 04:46N 54°06' W 004°15'918.1
2019-Feb-06 04:18N 54°03' W 004°02'618.2
2019-Feb-06 03:58N 54°01' W 003°52'  

Dump ship's entire track history